Time;durP1;ratioP1;P1;durP2;ratioP2;P2;SDS_P1;SDS_P2;PMS_P1;PMS_P2;Temp;Humidity;BMP_temperature;BMP_pressure;BME280_temperature;BME280_humidity;BME280_pressure;Samples;Min_cycle;Max_cycle;Signal;HPM_P1;HPM_P2
2021/09/19 00:01:42;;;;;;;2.8;2.5;;;;;;;11.8;89.61719;935.5906;;;;
2021/09/19 00:04:08;;;;;;;5.4;3;;;;;;;11.85;88.86035;935.5359;;;;
2021/09/19 00:06:33;;;;;;;4;3.1;;;;;;;11.82;88.8418;935.5295;;;;
2021/09/19 00:08:59;;;;;;;4.6;2.8;;;;;;;11.83;88.82129;935.4592;;;;
2021/09/19 00:11:25;;;;;;;3.4;3.1;;;;;;;11.66;89.58496;935.4602;;;;
2021/09/19 00:13:50;;;;;;;3.1;2.8;;;;;;;11.5;90.49219;935.4414;;;;
2021/09/19 00:16:15;;;;;;;3.9;2.8;;;;;;;11.41;90.91895;935.4003;;;;
2021/09/19 00:18:41;;;;;;;3.7;2.9;;;;;;;11.42;90.72656;935.4772;;;;
2021/09/19 00:21:06;;;;;;;3.9;2.6;;;;;;;11.44;90.5127;935.4358;;;;
2021/09/19 00:23:32;;;;;;;2.9;2.6;;;;;;;11.4;90.71094;935.445;;;;
2021/09/19 00:25:57;;;;;;;3.1;2.7;;;;;;;11.36;90.89648;935.4114;;;;
2021/09/19 00:28:23;;;;;;;3.6;2.8;;;;;;;11.42;90.60059;935.4414;;;;
2021/09/19 00:30:48;;;;;;;3.8;2.6;;;;;;;11.28;90.80078;935.4233;;;;
2021/09/19 00:33:15;;;;;;;4.1;2.9;;;;;;;10.98;92.48535;935.3917;;;;
2021/09/19 00:35:40;;;;;;;3.2;2.6;;;;;;;10.89;93.3916;935.4057;;;;
2021/09/19 00:38:05;;;;;;;2.8;2.6;;;;;;;10.94;93.51758;935.3908;;;;
2021/09/19 00:40:30;;;;;;;3.1;2.8;;;;;;;11.11;92.7334;935.4242;;;;
2021/09/19 00:42:55;;;;;;;3.7;2.9;;;;;;;11.19;91.92578;935.3973;;;;
2021/09/19 00:45:21;;;;;;;3.1;2.8;;;;;;;11.17;91.94238;935.3884;;;;
2021/09/19 00:47:47;;;;;;;3.3;2.8;;;;;;;11.18;91.69531;935.3511;;;;
2021/09/19 00:50:13;;;;;;;3;2.7;;;;;;;11.23;91.51074;935.3897;;;;
2021/09/19 00:52:38;;;;;;;3.3;2.8;;;;;;;11.3;90.77051;935.3484;;;;
2021/09/19 00:55:03;;;;;;;2.5;2.3;;;;;;;11.3;90.4043;935.3564;;;;
2021/09/19 00:57:28;;;;;;;4.3;3;;;;;;;11.39;89.66797;935.3565;;;;
2021/09/19 00:59:53;;;;;;;3.2;2.8;;;;;;;11.37;89.87012;935.2704;;;;
2021/09/19 01:02:18;;;;;;;3.4;2.5;;;;;;;11.31;90.0498;935.2488;;;;
2021/09/19 01:04:43;;;;;;;2.8;2.5;;;;;;;11.17;90.31934;935.2586;;;;
2021/09/19 01:07:09;;;;;;;4.4;3.2;;;;;;;10.97;91.90039;935.2697;;;;
2021/09/19 01:09:36;;;;;;;3.5;2.8;;;;;;;10.88;92.3291;935.2536;;;;
2021/09/19 01:12:01;;;;;;;3.7;2.8;;;;;;;10.79;92.9707;935.2999;;;;
2021/09/19 01:14:27;;;;;;;4.1;2.8;;;;;;;10.77;92.93066;935.3117;;;;
2021/09/19 01:16:52;;;;;;;2.9;2.5;;;;;;;10.74;93.13184;935.2894;;;;
2021/09/19 01:19:17;;;;;;;3.3;2.7;;;;;;;10.74;93.32617;935.2623;;;;
2021/09/19 01:21:42;;;;;;;4.2;3;;;;;;;10.64;94.07031;935.1934;;;;
2021/09/19 01:24:07;;;;;;;4.1;2.6;;;;;;;10.66;93.97168;935.1497;;;;
2021/09/19 01:26:32;;;;;;;3.9;2.8;;;;;;;10.6;93.7998;935.1786;;;;
2021/09/19 01:28:57;;;;;;;3.1;2.5;;;;;;;10.63;93.48535;935.1209;;;;
2021/09/19 01:31:23;;;;;;;4.6;2.7;;;;;;;10.6;93.34277;935.1133;;;;
2021/09/19 01:33:48;;;;;;;4;2.8;;;;;;;10.58;93.40723;935.1053;;;;
2021/09/19 01:36:15;;;;;;;4.1;2.7;;;;;;;10.63;93.24609;935.0708;;;;
2021/09/19 01:38:40;;;;;;;5;2.5;;;;;;;10.58;92.89355;935.0663;;;;
2021/09/19 01:41:05;;;;;;;2.8;2.6;;;;;;;10.62;93.07227;935.0644;;;;
2021/09/19 01:43:30;;;;;;;3.5;2.9;;;;;;;10.69;92.74316;935.0719;;;;
2021/09/19 01:45:55;;;;;;;3.5;2.7;;;;;;;10.75;92.72266;934.9852;;;;
2021/09/19 01:48:21;;;;;;;3.6;3.2;;;;;;;10.78;92.16895;934.983;;;;
2021/09/19 01:50:46;;;;;;;3.3;2.7;;;;;;;10.75;92.16504;935.0131;;;;
2021/09/19 01:53:11;;;;;;;3.3;2.7;;;;;;;10.76;92.05078;934.967;;;;
2021/09/19 01:55:36;;;;;;;4.2;2.9;;;;;;;10.72;92.0293;934.9556;;;;
2021/09/19 01:58:01;;;;;;;4.2;2.8;;;;;;;10.7;92.23145;934.8998;;;;
2021/09/19 02:00:27;;;;;;;3.1;2.8;;;;;;;10.62;92.61426;934.8694;;;;
2021/09/19 02:02:53;;;;;;;3.5;2.8;;;;;;;10.58;92.76758;934.8481;;;;
2021/09/19 02:05:18;;;;;;;2.9;2.6;;;;;;;10.59;92.48242;934.8482;;;;
2021/09/19 02:07:43;;;;;;;4.4;3;;;;;;;10.53;92.85938;934.7883;;;;
2021/09/19 02:10:09;;;;;;;2.9;2.6;;;;;;;10.53;92.57324;934.7628;;;;
2021/09/19 02:12:35;;;;;;;3.1;2.7;;;;;;;10.59;92.23145;934.697;;;;
2021/09/19 02:14:59;;;;;;;3.2;2.7;;;;;;;10.64;91.91016;934.7508;;;;
2021/09/19 02:17:24;;;;;;;3.6;2.7;;;;;;;10.65;91.50195;934.731;;;;
2021/09/19 02:19:49;;;;;;;3.1;2.8;;;;;;;10.49;92.15527;934.6552;;;;
2021/09/19 02:22:14;;;;;;;3.2;2.9;;;;;;;10.46;92.39648;934.6671;;;;
2021/09/19 02:24:39;;;;;;;3.4;3;;;;;;;10.53;91.74023;934.6195;;;;
2021/09/19 02:27:04;;;;;;;3.2;2.5;;;;;;;10.51;91.67773;934.5972;;;;
2021/09/19 02:29:31;;;;;;;3;2.7;;;;;;;10.44;92.24609;934.5261;;;;
2021/09/19 02:31:56;;;;;;;3.3;2.7;;;;;;;10.39;92.25781;934.524;;;;
2021/09/19 02:34:21;;;;;;;2.6;2.4;;;;;;;10.3;92.58203;934.4672;;;;
2021/09/19 02:36:46;;;;;;;3.1;2.6;;;;;;;10.06;93.41797;934.3826;;;;
2021/09/19 02:39:11;;;;;;;3.1;2.7;;;;;;;10.04;93.56445;934.3977;;;;
2021/09/19 02:41:36;;;;;;;2.9;2.6;;;;;;;9.86;94.51465;934.4196;;;;
2021/09/19 02:44:01;;;;;;;3.9;2.9;;;;;;;9.93;94.34863;934.3134;;;;
2021/09/19 02:46:26;;;;;;;3.5;2.9;;;;;;;10.06;93.70313;934.2793;;;;
2021/09/19 02:49:01;;;;;;;2.8;2.5;;;;;;;10;93.74805;934.2731;;;;
2021/09/19 02:51:27;;;;;;;2.8;2.5;;;;;;;9.91;94.09375;934.2369;;;;
2021/09/19 02:53:52;;;;;;;3.1;2.8;;;;;;;9.98;94.13184;934.2277;;;;
2021/09/19 02:56:17;;;;;;;3.9;3.1;;;;;;;10;93.62305;934.1792;;;;
2021/09/19 02:58:43;;;;;;;5.3;2.8;;;;;;;10.06;93.39648;934.1465;;;;
2021/09/19 03:01:08;;;;;;;3.8;2.6;;;;;;;10.12;93.02051;934.1467;;;;
2021/09/19 03:03:33;;;;;;;2.8;2.5;;;;;;;10.08;92.9541;934.1266;;;;
2021/09/19 03:05:58;;;;;;;3.3;2.9;;;;;;;10.04;92.98242;934.0955;;;;
2021/09/19 03:08:23;;;;;;;3.3;2.5;;;;;;;10.06;93.18945;934.0614;;;;
2021/09/19 03:10:48;;;;;;;4.6;3;;;;;;;9.95;93.31445;934.0407;;;;
2021/09/19 03:13:14;;;;;;;4.6;3.1;;;;;;;9.91;93.60547;934.0278;;;;
2021/09/19 03:15:39;;;;;;;4.8;3;;;;;;;9.9;93.84082;934.0357;;;;
2021/09/19 03:18:04;;;;;;;2.7;2.5;;;;;;;9.91;93.375;934.0294;;;;
2021/09/19 03:20:29;;;;;;;3.2;2.9;;;;;;;9.8;94.28613;933.9331;;;;
2021/09/19 03:22:54;;;;;;;3.8;2.9;;;;;;;9.85;94.01172;933.8803;;;;
2021/09/19 03:25:20;;;;;;;2.9;2.6;;;;;;;9.85;93.73926;933.8923;;;;
2021/09/19 03:28:09;;;;;;;3;2.5;;;;;;;9.83;93.67871;933.8541;;;;
2021/09/19 03:30:35;;;;;;;3.6;2.7;;;;;;;9.81;93.99219;933.772;;;;
2021/09/19 03:33:00;;;;;;;8.2;5.9;;;;;;;9.66;94.20898;933.7758;;;;
2021/09/19 03:35:25;;;;;;;6.7;5;;;;;;;9.58;94.71582;933.7822;;;;
2021/09/19 03:37:50;;;;;;;3.4;3.1;;;;;;;9.64;94.41016;933.7875;;;;
2021/09/19 03:40:16;;;;;;;3.1;2.8;;;;;;;9.67;93.88281;933.7377;;;;
2021/09/19 03:42:51;;;;;;;3.8;3.1;;;;;;;9.68;93.75977;933.7059;;;;
2021/09/19 03:45:15;;;;;;;4.5;3.8;;;;;;;9.78;93.32324;933.7556;;;;
2021/09/19 03:47:40;;;;;;;3.9;3.2;;;;;;;9.71;93.26172;933.7307;;;;
2021/09/19 03:50:05;;;;;;;3.2;2.9;;;;;;;9.69;93.17969;933.7569;;;;
2021/09/19 03:52:30;;;;;;;2.9;2.6;;;;;;;9.68;93.37207;933.7664;;;;
2021/09/19 03:54:55;;;;;;;6.2;4.6;;;;;;;9.73;93.16699;933.7936;;;;
2021/09/19 03:57:20;;;;;;;8.1;7.3;;;;;;;9.75;92.98633;933.7834;;;;
2021/09/19 03:59:45;;;;;;;20.2;18.2;;;;;;;9.62;93.5498;933.7699;;;;
2021/09/19 04:02:31;;;;;;;6.2;5.4;;;;;;;9.43;94.75195;933.7367;;;;
2021/09/19 04:04:56;;;;;;;3.6;3;;;;;;;9.38;95.42578;933.8323;;;;
2021/09/19 04:07:21;;;;;;;7;6;;;;;;;9.47;95.70508;933.7751;;;;
2021/09/19 04:09:46;;;;;;;4.3;3.7;;;;;;;9.44;95.76758;933.8004;;;;
2021/09/19 04:12:12;;;;;;;4.1;3;;;;;;;9.56;94.80469;933.821;;;;
2021/09/19 04:14:38;;;;;;;6.7;6;;;;;;;9.58;94.11328;933.841;;;;
2021/09/19 04:17:03;;;;;;;12.2;11.1;;;;;;;9.51;94.57617;933.8365;;;;
2021/09/19 04:19:29;;;;;;;8.5;6.3;;;;;;;9.5;94.74512;933.8819;;;;
2021/09/19 04:21:54;;;;;;;7.2;5;;;;;;;9.53;94.74219;933.9742;;;;
2021/09/19 04:24:19;;;;;;;5.1;4.5;;;;;;;9.55;95.03027;933.9235;;;;
2021/09/19 04:26:44;;;;;;;3.9;3;;;;;;;9.55;94.58203;933.9004;;;;
2021/09/19 04:29:10;;;;;;;3.4;2.8;;;;;;;9.51;94.46289;933.9916;;;;
2021/09/19 04:31:35;;;;;;;5.5;3.2;;;;;;;9.44;95.20996;933.9617;;;;
2021/09/19 04:34:00;;;;;;;6.1;5.5;;;;;;;9.33;95.35645;933.9917;;;;
2021/09/19 04:36:26;;;;;;;11.2;10;;;;;;;9.33;95.65234;933.9606;;;;
2021/09/19 04:38:52;;;;;;;3.7;3.1;;;;;;;9.31;95.30664;933.9852;;;;
2021/09/19 04:41:17;;;;;;;5.3;4.2;;;;;;;9.38;94.95703;933.9833;;;;
2021/09/19 04:43:43;;;;;;;4.8;3.7;;;;;;;9.36;94.75879;933.9966;;;;
2021/09/19 04:46:08;;;;;;;3.6;3.3;;;;;;;9.41;94.99902;933.9564;;;;
2021/09/19 04:48:34;;;;;;;5;3.9;;;;;;;9.44;94.7998;933.9633;;;;
2021/09/19 04:50:59;;;;;;;5.3;4.7;;;;;;;9.43;94.92285;933.9767;;;;
2021/09/19 04:53:24;;;;;;;5.2;4.7;;;;;;;9.5;94.75488;933.9749;;;;
2021/09/19 04:55:49;;;;;;;5.8;4.7;;;;;;;9.51;94.39453;933.9598;;;;
2021/09/19 04:58:14;;;;;;;4.4;3.3;;;;;;;9.55;95.51855;933.8948;;;;
2021/09/19 05:00:39;;;;;;;3.4;3;;;;;;;9.65;95.49316;933.9164;;;;
2021/09/19 05:03:04;;;;;;;3.3;3;;;;;;;9.59;94.41211;933.9444;;;;
2021/09/19 05:05:29;;;;;;;3.3;3;;;;;;;9.59;94.28613;933.8299;;;;
2021/09/19 05:07:54;;;;;;;3.6;2.9;;;;;;;9.59;94.48047;933.9006;;;;
2021/09/19 05:10:20;;;;;;;3.4;2.8;;;;;;;9.7;93.5127;933.869;;;;
2021/09/19 05:12:45;;;;;;;2.9;2.6;;;;;;;9.63;93.57715;933.8011;;;;
2021/09/19 05:15:10;;;;;;;3.9;2.8;;;;;;;9.67;93.03711;933.8187;;;;
2021/09/19 05:17:35;;;;;;;3.9;3.5;;;;;;;9.57;92.3457;933.8329;;;;
2021/09/19 05:20:00;;;;;;;4.5;4.1;;;;;;;9.65;92.62305;933.8376;;;;
2021/09/19 05:22:25;;;;;;;3.9;3;;;;;;;9.64;92.25684;933.7979;;;;
2021/09/19 05:24:50;;;;;;;6.3;5.7;;;;;;;9.51;92.68555;933.8326;;;;
2021/09/19 05:29:40;;;;;;;7.5;6.4;;;;;;;9.33;94.78711;933.8701;;;;
2021/09/19 05:32:10;;;;;;;4.7;3.8;;;;;;;9.37;94.89551;933.8998;;;;
2021/09/19 05:34:35;;;;;;;7.3;5.6;;;;;;;9.41;94.88477;933.8551;;;;
2021/09/19 05:37:00;;;;;;;3.3;2.7;;;;;;;9.49;94.18359;933.8738;;;;
2021/09/19 05:39:25;;;;;;;5.9;4.5;;;;;;;9.51;94.00488;933.9383;;;;
2021/09/19 05:41:51;;;;;;;7.3;5.5;;;;;;;9.64;94.0459;933.8575;;;;
2021/09/19 05:44:16;;;;;;;3.2;2.9;;;;;;;9.81;93.75098;933.7701;;;;
2021/09/19 05:46:41;;;;;;;4.7;2.6;;;;;;;10.11;92.45996;933.8842;;;;
2021/09/19 05:49:13;;;;;;;3.4;3.1;;;;;;;10.45;90.69531;933.84;;;;
2021/09/19 05:51:38;;;;;;;4.2;3.1;;;;;;;10.33;91.30762;933.8179;;;;
2021/09/19 05:54:04;;;;;;;4.7;4.3;;;;;;;10.54;90.94238;933.7169;;;;
2021/09/19 05:56:29;;;;;;;5.5;3.8;;;;;;;10.87;91.31934;933.7625;;;;
2021/09/19 05:58:54;;;;;;;2.9;2.7;;;;;;;11.87;85.44043;933.728;;;;
2021/09/19 06:01:20;;;;;;;4.2;2.7;;;;;;;12.67;80.58105;933.6897;;;;
2021/09/19 06:03:45;;;;;;;3.4;2.5;;;;;;;13.33;77.75098;933.6468;;;;
2021/09/19 06:06:10;;;;;;;2.2;2;;;;;;;14.14;74.21094;933.6205;;;;
2021/09/19 06:08:35;;;;;;;2.6;2.4;;;;;;;14.84;71.9668;933.6248;;;;
2021/09/19 06:11:00;;;;;;;2.4;2.1;;;;;;;14.83;70.05078;933.5592;;;;
2021/09/19 06:13:25;;;;;;;4.5;2.9;;;;;;;14.08;73.07324;933.6428;;;;
2021/09/19 06:15:51;;;;;;;3.2;2.9;;;;;;;14;74.2334;933.6027;;;;
2021/09/19 06:18:22;;;;;;;2.4;2;;;;;;;14.94;71.46387;933.5281;;;;
2021/09/19 06:20:47;;;;;;;3.3;2.2;;;;;;;15.6;68.70703;933.5393;;;;
2021/09/19 06:23:12;;;;;;;2.3;1.9;;;;;;;15.99;67.64648;933.4436;;;;
2021/09/19 06:25:37;;;;;;;2.1;1.9;;;;;;;16.15;66.94336;933.3934;;;;
2021/09/19 06:28:10;;;;;;;2.5;2.3;;;;;;;15.68;69.1123;933.4684;;;;
2021/09/19 06:30:28;;;;;;;2.4;2.2;;;;;;;16.39;67.55859;933.421;;;;
2021/09/19 06:32:53;;;;;;;2.7;2.2;;;;;;;16.85;65.30176;933.4252;;;;
2021/09/19 06:35:18;;;;;;;2.4;1.8;;;;;;;16.57;65.79102;933.4078;;;;
2021/09/19 06:37:43;;;;;;;2.1;1.9;;;;;;;15.65;69.45508;933.4142;;;;
2021/09/19 06:40:08;;;;;;;3.3;3;;;;;;;15.64;71.17383;933.4041;;;;
2021/09/19 06:42:33;;;;;;;3.4;2.5;;;;;;;14.91;73.35059;933.3912;;;;
2021/09/19 06:44:58;;;;;;;2.8;2.1;;;;;;;15.27;72.82324;933.4191;;;;
2021/09/19 06:47:23;;;;;;;3.3;1.9;;;;;;;15.12;73.16699;933.3972;;;;
2021/09/19 06:49:49;;;;;;;2.8;2.1;;;;;;;14.93;73.69824;933.315;;;;
2021/09/19 06:52:14;;;;;;;3.5;2.7;;;;;;;14.78;75.66992;933.2879;;;;
2021/09/19 06:54:39;;;;;;;2.9;2.6;;;;;;;14.84;75.24121;933.3137;;;;
2021/09/19 06:57:04;;;;;;;2.6;2.4;;;;;;;14.72;75.50781;933.2728;;;;
2021/09/19 06:59:29;;;;;;;2.7;2.5;;;;;;;14.43;77.94824;933.2004;;;;
2021/09/19 07:01:58;;;;;;;2.7;2.5;;;;;;;14.76;76.83008;933.2553;;;;
2021/09/19 07:04:23;;;;;;;3.9;3;;;;;;;14.83;76.54102;933.2355;;;;
2021/09/19 07:06:49;;;;;;;3.9;2.9;;;;;;;14.89;76.62207;933.2489;;;;
2021/09/19 07:09:29;;;;;;;2.1;1.9;;;;;;;15.13;74.83105;933.2222;;;;
2021/09/19 07:11:54;;;;;;;2.7;2.1;;;;;;;15.31;72.9541;933.2003;;;;
2021/09/19 07:14:19;;;;;;;3.2;2.1;;;;;;;15.73;73.42969;933.1906;;;;
2021/09/19 07:16:45;;;;;;;3.3;2.3;;;;;;;16.06;71.82031;933.1213;;;;
2021/09/19 07:19:10;;;;;;;2.3;2.1;;;;;;;16;70.14551;933.16;;;;
2021/09/19 07:21:35;;;;;;;2.3;1.9;;;;;;;16.12;70.33789;933.1877;;;;
2021/09/19 07:24:00;;;;;;;2;1.7;;;;;;;16.2;70.34082;933.1337;;;;
2021/09/19 07:26:25;;;;;;;2.9;1.8;;;;;;;16.4;70.35938;933.1099;;;;
2021/09/19 07:28:51;;;;;;;2.2;2;;;;;;;16.6;70.62305;933.0906;;;;
2021/09/19 07:31:16;;;;;;;1.9;1.8;;;;;;;17.37;68.50977;933.0883;;;;
2021/09/19 07:33:42;;;;;;;1.7;1.6;;;;;;;18.02;65.27734;933.068;;;;
2021/09/19 07:36:07;;;;;;;2.1;1.9;;;;;;;18.63;62.63477;933.0281;;;;
2021/09/19 07:38:32;;;;;;;3.3;1.8;;;;;;;18.96;62.46094;933.108;;;;
2021/09/19 07:40:57;;;;;;;2;1.8;;;;;;;18.86;63.98242;933.1184;;;;
2021/09/19 07:43:22;;;;;;;2;1.9;;;;;;;18.66;66.44238;933.0806;;;;
2021/09/19 07:45:47;;;;;;;2.3;2.1;;;;;;;18.65;65.53418;933.0825;;;;
2021/09/19 07:48:12;;;;;;;2.7;2.1;;;;;;;18.99;64.38477;933.0892;;;;
2021/09/19 07:50:37;;;;;;;2.5;2;;;;;;;19.75;60.36914;933.0497;;;;
2021/09/19 07:53:03;;;;;;;2.1;1.9;;;;;;;19.74;62.44238;933.1286;;;;
2021/09/19 07:55:29;;;;;;;1.8;1.7;;;;;;;19.64;61.82324;933.0728;;;;
2021/09/19 07:57:53;;;;;;;2.3;2.1;;;;;;;19.5;63.80762;933.0761;;;;
2021/09/19 08:00:18;;;;;;;3;2;;;;;;;19.46;62.92676;933.0848;;;;
2021/09/19 08:02:44;;;;;;;2.1;1.9;;;;;;;18.7;65.60059;933.1278;;;;
2021/09/19 08:05:10;;;;;;;2.2;1.9;;;;;;;19.27;64.27539;933.106;;;;
2021/09/19 08:07:35;;;;;;;2.3;2.1;;;;;;;19.63;62.25195;933.1379;;;;
2021/09/19 08:10:01;;;;;;;2.6;2.4;;;;;;;20.19;62.15527;933.0674;;;;
2021/09/19 08:12:26;;;;;;;2.2;2;;;;;;;21.85;55.93359;933.0243;;;;
2021/09/19 08:14:52;;;;;;;2.5;2.2;;;;;;;21.94;55.66504;933.0834;;;;
2021/09/19 08:17:17;;;;;;;2;1.8;;;;;;;21.94;55.11328;933.0813;;;;
2021/09/19 08:19:42;;;;;;;2;1.8;;;;;;;22.04;53.6377;933.087;;;;
2021/09/19 08:22:07;;;;;;;1.9;1.8;;;;;;;21.82;54.31348;933.1088;;;;
2021/09/19 08:24:32;;;;;;;1.8;1.7;;;;;;;22.31;53.1416;933.1423;;;;
2021/09/19 08:26:58;;;;;;;1.9;1.7;;;;;;;22.5;54.46777;933.1348;;;;
2021/09/19 08:29:23;;;;;;;1.8;1.7;;;;;;;22.5;50.91113;933.1188;;;;
2021/09/19 08:31:49;;;;;;;2.8;2;;;;;;;21.76;54.37598;933.1453;;;;
2021/09/19 08:34:14;;;;;;;2.3;1.7;;;;;;;23.21;51.33398;933.1384;;;;
2021/09/19 08:36:40;;;;;;;1.7;1.6;;;;;;;22.99;51.4375;933.0906;;;;
2021/09/19 08:39:05;;;;;;;1.8;1.7;;;;;;;23.55;50.20801;933.0956;;;;
2021/09/19 08:41:33;;;;;;;2.1;1.9;;;;;;;22.07;54.49512;933.1209;;;;
2021/09/19 08:43:58;;;;;;;1.9;1.8;;;;;;;21.9;55.22559;933.0731;;;;
2021/09/19 08:46:23;;;;;;;2;1.6;;;;;;;22.45;54.625;933.116;;;;
2021/09/19 08:48:48;;;;;;;2.1;1.6;;;;;;;22.02;53.40039;933.1152;;;;
2021/09/19 08:51:14;;;;;;;2.3;1.5;;;;;;;21.97;54.60156;933.0506;;;;
2021/09/19 08:53:39;;;;;;;1.8;1.6;;;;;;;24.13;47.69531;933.1208;;;;
2021/09/19 08:56:04;;;;;;;2;1.7;;;;;;;22.23;54.37598;933.0994;;;;
2021/09/19 08:58:30;;;;;;;1.8;1.7;;;;;;;22.47;52.44531;933.1451;;;;
2021/09/19 09:00:55;;;;;;;1.7;1.6;;;;;;;22.41;54.29004;933.0869;;;;
2021/09/19 09:03:20;;;;;;;1.9;1.8;;;;;;;21.15;58.60547;932.9933;;;;
2021/09/19 09:05:46;;;;;;;1.9;1.8;;;;;;;21.88;55.83105;933.0126;;;;
2021/09/19 09:08:11;;;;;;;1.6;1.5;;;;;;;22.36;53.94434;932.9973;;;;
2021/09/19 09:10:39;;;;;;;1.7;1.6;;;;;;;21.59;56.46289;932.9827;;;;
2021/09/19 09:13:04;;;;;;;1.9;1.8;;;;;;;21.02;58.68359;932.9868;;;;
2021/09/19 09:15:33;;;;;;;2.1;1.7;;;;;;;20.58;60.72656;932.9983;;;;
2021/09/19 09:18:04;;;;;;;2;1.8;;;;;;;19.91;63.35254;933.0137;;;;
2021/09/19 09:20:25;;;;;;;2;1.8;;;;;;;19.96;65.23926;933.0064;;;;
2021/09/19 09:22:54;;;;;;;2.2;2;;;;;;;19.99;64.09961;932.9391;;;;
2021/09/19 09:25:19;;;;;;;2.3;2.1;;;;;;;19.29;64.34766;932.9802;;;;
2021/09/19 09:27:44;;;;;;;2.6;1.9;;;;;;;20.28;60.67383;932.9787;;;;
2021/09/19 09:30:10;;;;;;;3.5;1.9;;;;;;;20.29;62.68457;932.9053;;;;
2021/09/19 09:32:37;;;;;;;2.4;1.8;;;;;;;20.56;59.20508;932.9003;;;;
2021/09/19 09:35:02;;;;;;;2;1.8;;;;;;;20.72;59.09863;932.9584;;;;
2021/09/19 09:37:27;;;;;;;1.9;1.8;;;;;;;20.47;61.4707;932.9125;;;;
2021/09/19 09:39:53;;;;;;;2.4;1.8;;;;;;;20.48;60.11719;932.8636;;;;
2021/09/19 09:42:18;;;;;;;2;1.9;;;;;;;20.23;61.84668;932.8163;;;;
2021/09/19 09:44:45;;;;;;;2.2;2;;;;;;;19.99;64.00781;932.8558;;;;
2021/09/19 09:47:10;;;;;;;2.8;2.2;;;;;;;20.31;63.78418;932.8318;;;;
2021/09/19 09:49:37;;;;;;;1.9;1.7;;;;;;;20.85;59.76953;932.7336;;;;
2021/09/19 09:52:02;;;;;;;2.1;1.9;;;;;;;20.83;59.9541;932.71;;;;
2021/09/19 09:54:29;;;;;;;2.2;1.9;;;;;;;20.52;60.64844;932.747;;;;
2021/09/19 09:56:54;;;;;;;3;2.1;;;;;;;20.71;60.70898;932.7533;;;;
2021/09/19 09:59:19;;;;;;;2.1;1.9;;;;;;;21.2;59.28027;932.6591;;;;
2021/09/19 10:01:49;;;;;;;1.9;1.8;;;;;;;20.76;60.72949;932.726;;;;
2021/09/19 10:04:14;;;;;;;4;2.2;;;;;;;20.04;63.88574;932.6902;;;;
2021/09/19 10:06:41;;;;;;;4;1.8;;;;;;;20.08;64.21875;932.6887;;;;
2021/09/19 10:09:06;;;;;;;2.3;2;;;;;;;20.18;63.18262;932.6602;;;;
2021/09/19 10:11:32;;;;;;;2.2;1.8;;;;;;;20.53;62.76465;932.7686;;;;
2021/09/19 10:13:57;;;;;;;2.2;1.9;;;;;;;21.24;61.47363;932.7949;;;;
2021/09/19 10:16:23;;;;;;;3.3;2.3;;;;;;;21.34;60.02441;932.7722;;;;
2021/09/19 10:18:49;;;;;;;5.8;3;;;;;;;21.31;59.46973;932.7873;;;;
2021/09/19 10:21:15;;;;;;;2.2;2;;;;;;;21.43;60.89063;932.8434;;;;
2021/09/19 10:23:40;;;;;;;3.9;2.1;;;;;;;22.05;57.29492;932.8306;;;;
2021/09/19 10:26:07;;;;;;;2.2;2;;;;;;;22.41;55.47754;932.8228;;;;
2021/09/19 10:28:30;;;;;;;3.1;2.1;;;;;;;22.39;55.37891;932.7551;;;;
2021/09/19 10:30:59;;;;;;;2.2;2;;;;;;;20.63;58.91113;932.8621;;;;
2021/09/19 10:33:24;;;;;;;2.7;2.2;;;;;;;19.85;61.01172;932.8203;;;;
2021/09/19 10:36:45;;;;;;;2;1.9;;;;;;;19.72;62.20605;932.8175;;;;
2021/09/19 10:39:06;;;;;;;2.7;2.2;;;;;;;19.14;64.36035;932.8959;;;;
2021/09/19 10:41:32;;;;;;;2.4;2.2;;;;;;;18.99;65.26953;932.903;;;;
2021/09/19 10:44:44;;;;;;;2.9;2;;;;;;;18.88;66.2207;932.9426;;;;
2021/09/19 10:47:09;;;;;;;2;1.8;;;;;;;19.32;64.1543;932.8792;;;;
2021/09/19 10:49:34;;;;;;;3.6;2.3;;;;;;;18.82;65.83789;932.9146;;;;
2021/09/19 10:51:59;;;;;;;2.2;2;;;;;;;19.13;64.8252;932.8036;;;;
2021/09/19 10:54:24;;;;;;;2.9;2.2;;;;;;;18.97;65.76758;932.8915;;;;
2021/09/19 10:56:51;;;;;;;2.5;2.2;;;;;;;19.12;64.78906;932.9023;;;;
2021/09/19 10:59:16;;;;;;;1.9;1.8;;;;;;;19.13;64.5918;932.9199;;;;
2021/09/19 11:01:44;;;;;;;2.6;2.3;;;;;;;19.16;65.12109;932.9236;;;;
2021/09/19 11:04:09;;;;;;;2.3;2.1;;;;;;;19.25;64.65625;933.0414;;;;
2021/09/19 11:06:34;;;;;;;2.4;2.2;;;;;;;19;65.85254;932.9826;;;;
2021/09/19 11:09:01;;;;;;;2.8;2.3;;;;;;;19.03;65.50879;932.9988;;;;
2021/09/19 11:11:27;;;;;;;2.1;2;;;;;;;19.06;66.35156;933.0109;;;;
2021/09/19 11:13:55;;;;;;;2.1;1.9;;;;;;;19.37;65.58301;933.0292;;;;
2021/09/19 11:16:19;;;;;;;3.2;2.3;;;;;;;19.22;65.94434;932.9211;;;;
2021/09/19 11:18:45;;;;;;;2.6;2.3;;;;;;;19.53;65.1748;932.9816;;;;
2021/09/19 11:21:09;;;;;;;2;1.8;;;;;;;20.59;63.61426;932.9709;;;;
2021/09/19 11:23:37;;;;;;;2.4;1.8;;;;;;;21.41;59.81055;932.9703;;;;
2021/09/19 11:26:02;;;;;;;1.9;1.8;;;;;;;21.83;56.41113;932.8945;;;;
2021/09/19 11:28:28;;;;;;;1.9;1.8;;;;;;;21.1;60.03809;932.9659;;;;
2021/09/19 11:30:53;;;;;;;2;1.9;;;;;;;20.89;60.06738;932.9999;;;;
2021/09/19 11:33:19;;;;;;;2;1.8;;;;;;;20.94;59.75977;933.0826;;;;
2021/09/19 11:35:45;;;;;;;3.8;2.1;;;;;;;20.83;60.15332;933.0652;;;;
2021/09/19 11:38:10;;;;;;;2.1;2;;;;;;;19.99;62.25684;933.0885;;;;
2021/09/19 11:40:35;;;;;;;2.3;2.1;;;;;;;20.04;62.95117;933.202;;;;
2021/09/19 11:43:01;;;;;;;2.1;1.9;;;;;;;19.92;62.29395;933.2001;;;;
2021/09/19 11:45:29;;;;;;;3.8;2.2;;;;;;;19.92;62.73535;933.2327;;;;
2021/09/19 11:47:54;;;;;;;3.4;2.3;;;;;;;19.83;63.58691;933.1369;;;;
2021/09/19 11:50:19;;;;;;;2;1.9;;;;;;;19.73;63.12988;933.1295;;;;
2021/09/19 11:52:44;;;;;;;2.5;2.3;;;;;;;19.33;64.3291;933.1365;;;;
2021/09/19 11:55:12;;;;;;;2.6;2.4;;;;;;;19.1;65.43848;933.1014;;;;
2021/09/19 11:57:37;;;;;;;2.3;2.1;;;;;;;19.08;64.86523;933.0149;;;;
2021/09/19 12:00:03;;;;;;;2.3;2.1;;;;;;;18.78;66.53027;933.0762;;;;
2021/09/19 12:02:29;;;;;;;2.7;2.2;;;;;;;19.12;65.94141;933.051;;;;
2021/09/19 12:04:56;;;;;;;2.3;2.1;;;;;;;18.9;65.52539;933.0421;;;;
2021/09/19 12:07:21;;;;;;;2.6;2.3;;;;;;;18.75;66.6543;933.0915;;;;
2021/09/19 12:09:47;;;;;;;2.9;2.6;;;;;;;18.53;67.90039;932.9951;;;;
2021/09/19 12:12:12;;;;;;;2.3;2.1;;;;;;;18.75;66.7002;933.0674;;;;
2021/09/19 12:14:38;;;;;;;2.6;2.4;;;;;;;18.87;66.05469;933.1116;;;;
2021/09/19 12:17:03;;;;;;;2.5;2.3;;;;;;;19.07;66.3877;933.0927;;;;
2021/09/19 12:19:28;;;;;;;2.3;2.1;;;;;;;19.28;66.47656;933.0928;;;;
2021/09/19 12:21:55;;;;;;;2.2;2;;;;;;;19.28;66.67676;933.0613;;;;
2021/09/19 12:24:21;;;;;;;2.4;2.2;;;;;;;19.38;65.07031;933.0193;;;;
2021/09/19 12:26:46;;;;;;;2.5;2.3;;;;;;;19.15;64.71094;932.945;;;;
2021/09/19 12:29:12;;;;;;;2.5;2.2;;;;;;;19.16;65.21289;932.876;;;;
2021/09/19 12:31:37;;;;;;;2.4;2.2;;;;;;;19.05;64.5791;932.9176;;;;
2021/09/19 12:34:03;;;;;;;2.3;2.1;;;;;;;19.16;64.94629;932.9575;;;;
2021/09/19 12:36:28;;;;;;;3.5;2.4;;;;;;;18.86;66.18164;932.9886;;;;
2021/09/19 12:38:53;;;;;;;2.3;2.1;;;;;;;19.24;64.57422;932.9567;;;;
2021/09/19 12:41:18;;;;;;;2.7;2.5;;;;;;;18.6;68.64453;932.9236;;;;
2021/09/19 12:43:43;;;;;;;2.9;2.5;;;;;;;18.69;67.66797;932.8264;;;;
2021/09/19 12:46:08;;;;;;;3;2.7;;;;;;;18.63;67.25293;932.9314;;;;
2021/09/19 12:48:34;;;;;;;2.5;2.1;;;;;;;18.57;68.0918;932.9149;;;;
2021/09/19 12:50:59;;;;;;;2.6;2.4;;;;;;;18.34;68.2666;932.9334;;;;
2021/09/19 12:53:24;;;;;;;3.2;2.7;;;;;;;18.49;67.7207;932.9325;;;;
2021/09/19 12:55:51;;;;;;;2.7;2.5;;;;;;;17.92;70.07031;932.8828;;;;
2021/09/19 12:58:16;;;;;;;5.3;3.9;;;;;;;17.82;69.0791;932.9803;;;;
2021/09/19 13:00:42;;;;;;;3.1;2.4;;;;;;;17.95;68.4375;933.022;;;;
2021/09/19 13:03:08;;;;;;;3.5;3;;;;;;;17.51;70.27246;932.9426;;;;
2021/09/19 13:05:32;;;;;;;3.6;2.6;;;;;;;17.58;68.94824;932.9723;;;;
2021/09/19 13:07:58;;;;;;;3.9;2.8;;;;;;;17.48;69.29395;932.9658;;;;
2021/09/19 13:10:25;;;;;;;3.2;2.8;;;;;;;17.48;68.97852;932.9579;;;;
2021/09/19 13:12:50;;;;;;;2.7;2.5;;;;;;;17.28;71.2666;932.9916;;;;
2021/09/19 13:15:16;;;;;;;4.8;2.8;;;;;;;17.31;71.22461;932.9924;;;;
2021/09/19 13:17:40;;;;;;;3.4;2.7;;;;;;;17.52;69.3457;932.9633;;;;
2021/09/19 13:20:06;;;;;;;3.5;2.9;;;;;;;17.53;69.04395;932.9551;;;;
2021/09/19 13:22:31;;;;;;;3.5;3.2;;;;;;;17.16;70.86426;932.9581;;;;
2021/09/19 13:24:56;;;;;;;4;3.5;;;;;;;17.09;70.95801;932.8922;;;;
2021/09/19 13:27:23;;;;;;;3.6;3.3;;;;;;;17.08;71.11914;932.9849;;;;
2021/09/19 13:29:48;;;;;;;3.8;3.4;;;;;;;17.03;71.52832;933.0094;;;;
2021/09/19 13:32:16;;;;;;;4.3;3.9;;;;;;;16.85;72.11133;933.0851;;;;
2021/09/19 13:34:43;;;;;;;4.3;3.9;;;;;;;16.72;72.56543;933.0579;;;;
2021/09/19 13:37:08;;;;;;;4.4;3.6;;;;;;;16.94;71.46582;933.1191;;;;
2021/09/19 13:39:33;;;;;;;3.8;3.3;;;;;;;17.07;70.65332;933.1372;;;;
2021/09/19 13:41:59;;;;;;;3.5;3.2;;;;;;;17.14;70.68848;933.2385;;;;
2021/09/19 13:44:24;;;;;;;3.9;3.5;;;;;;;16.95;71.12012;933.2597;;;;
2021/09/19 13:46:51;;;;;;;3.2;2.9;;;;;;;16.78;73.10742;933.3091;;;;
2021/09/19 13:49:20;;;;;;;3.8;3.5;;;;;;;16.73;74.79102;933.3005;;;;
2021/09/19 13:51:40;;;;;;;4.4;4;;;;;;;16.76;75.36328;933.3248;;;;
2021/09/19 13:54:06;;;;;;;4.6;3.7;;;;;;;16.7;75.72461;933.2875;;;;
2021/09/19 13:56:31;;;;;;;4.8;4.3;;;;;;;16.48;76.03223;933.3858;;;;
2021/09/19 13:58:57;;;;;;;4.8;3.9;;;;;;;16.53;75.83301;933.4055;;;;
2021/09/19 14:01:22;;;;;;;4;3.6;;;;;;;16.56;76.88184;933.4048;;;;
2021/09/19 14:03:48;;;;;;;5.4;4.3;;;;;;;16.4;78.51953;933.4553;;;;
2021/09/19 14:06:13;;;;;;;5.1;4.6;;;;;;;16.23;79.78613;933.5342;;;;
2021/09/19 14:08:39;;;;;;;5.6;5;;;;;;;16.32;79.45215;933.543;;;;
2021/09/19 14:11:04;;;;;;;4.8;4.3;;;;;;;16.41;78.83398;933.5789;;;;
2021/09/19 14:13:31;;;;;;;5.7;5.1;;;;;;;16.5;79;933.5403;;;;
2021/09/19 14:15:56;;;;;;;5.8;5;;;;;;;16.53;78.4707;933.5406;;;;
2021/09/19 14:18:22;;;;;;;6.4;5.3;;;;;;;16.6;78.15039;933.4763;;;;
2021/09/19 14:20:47;;;;;;;5.7;5.1;;;;;;;16.59;78.61133;933.5714;;;;
2021/09/19 14:23:13;;;;;;;5.7;5.1;;;;;;;16.57;80.00781;933.6884;;;;